sensor_id;sensor_type;location;lat;lon;timestamp;P1;durP1;ratioP1;P2;durP2;ratioP2
77322;SDS011;66384;51.052;9.850;2023-10-08T00:02:18;7.40;;;4.00;;
77322;SDS011;66384;51.052;9.850;2023-10-08T00:04:54;10.20;;;3.90;;
77322;SDS011;66384;51.052;9.850;2023-10-08T00:07:26;7.60;;;3.70;;
77322;SDS011;66384;51.052;9.850;2023-10-08T00:09:58;10.00;;;4.20;;
77322;SDS011;66384;51.052;9.850;2023-10-08T00:12:31;10.10;;;4.00;;
77322;SDS011;66384;51.052;9.850;2023-10-08T00:15:04;9.20;;;4.00;;
77322;SDS011;66384;51.052;9.850;2023-10-08T00:17:39;12.90;;;4.20;;
77322;SDS011;66384;51.052;9.850;2023-10-08T00:20:14;7.30;;;3.90;;
77322;SDS011;66384;51.052;9.850;2023-10-08T00:22:54;8.40;;;3.60;;
77322;SDS011;66384;51.052;9.850;2023-10-08T00:25:26;6.60;;;3.30;;
77322;SDS011;66384;51.052;9.850;2023-10-08T00:27:59;9.90;;;3.70;;
77322;SDS011;66384;51.052;9.850;2023-10-08T00:30:32;8.60;;;4.30;;
77322;SDS011;66384;51.052;9.850;2023-10-08T00:33:04;7.20;;;3.70;;
77322;SDS011;66384;51.052;9.850;2023-10-08T00:35:40;9.50;;;4.00;;
77322;SDS011;66384;51.052;9.850;2023-10-08T00:38:12;7.50;;;3.90;;
77322;SDS011;66384;51.052;9.850;2023-10-08T00:40:49;7.80;;;3.50;;
77322;SDS011;66384;51.052;9.850;2023-10-08T00:43:31;6.00;;;4.10;;
77322;SDS011;66384;51.052;9.850;2023-10-08T00:46:04;4.40;;;3.00;;
77322;SDS011;66384;51.052;9.850;2023-10-08T00:51:17;10.20;;;3.80;;
77322;SDS011;66384;51.052;9.850;2023-10-08T00:53:56;9.10;;;3.90;;
77322;SDS011;66384;51.052;9.850;2023-10-08T00:56:35;10.00;;;3.70;;
77322;SDS011;66384;51.052;9.850;2023-10-08T00:59:21;9.00;;;3.90;;
77322;SDS011;66384;51.052;9.850;2023-10-08T01:01:54;7.50;;;3.80;;
77322;SDS011;66384;51.052;9.850;2023-10-08T01:04:28;7.60;;;4.50;;
77322;SDS011;66384;51.052;9.850;2023-10-08T01:07:03;9.90;;;3.40;;
77322;SDS011;66384;51.052;9.850;2023-10-08T01:09:41;6.70;;;4.20;;
77322;SDS011;66384;51.052;9.850;2023-10-08T01:12:19;13.30;;;4.00;;
77322;SDS011;66384;51.052;9.850;2023-10-08T01:14:55;7.40;;;3.80;;
77322;SDS011;66384;51.052;9.850;2023-10-08T01:17:34;7.50;;;3.70;;
77322;SDS011;66384;51.052;9.850;2023-10-08T01:20:16;10.90;;;4.40;;
77322;SDS011;66384;51.052;9.850;2023-10-08T01:23:02;6.50;;;3.70;;
77322;SDS011;66384;51.052;9.850;2023-10-08T01:25:38;9.40;;;4.70;;
77322;SDS011;66384;51.052;9.850;2023-10-08T01:28:11;8.40;;;4.10;;
77322;SDS011;66384;51.052;9.850;2023-10-08T01:30:46;6.90;;;3.20;;
77322;SDS011;66384;51.052;9.850;2023-10-08T01:33:22;8.30;;;3.60;;
77322;SDS011;66384;51.052;9.850;2023-10-08T01:35:56;7.70;;;3.90;;
77322;SDS011;66384;51.052;9.850;2023-10-08T01:38:32;7.90;;;3.80;;
77322;SDS011;66384;51.052;9.850;2023-10-08T01:41:04;10.00;;;4.10;;
77322;SDS011;66384;51.052;9.850;2023-10-08T01:43:48;8.00;;;3.90;;
77322;SDS011;66384;51.052;9.850;2023-10-08T01:46:20;11.10;;;4.70;;
77322;SDS011;66384;51.052;9.850;2023-10-08T01:48:52;8.50;;;4.10;;
77322;SDS011;66384;51.052;9.850;2023-10-08T01:51:32;8.10;;;4.10;;
77322;SDS011;66384;51.052;9.850;2023-10-08T01:54:13;8.20;;;4.00;;
77322;SDS011;66384;51.052;9.850;2023-10-08T01:56:47;8.00;;;4.20;;
77322;SDS011;66384;51.052;9.850;2023-10-08T01:59:19;9.80;;;4.30;;
77322;SDS011;66384;51.052;9.850;2023-10-08T02:01:50;11.30;;;4.30;;
77322;SDS011;66384;51.052;9.850;2023-10-08T02:04:25;14.60;;;4.50;;
77322;SDS011;66384;51.052;9.850;2023-10-08T02:06:57;9.30;;;4.00;;
77322;SDS011;66384;51.052;9.850;2023-10-08T02:09:29;12.50;;;5.70;;
77322;SDS011;66384;51.052;9.850;2023-10-08T02:12:02;8.00;;;3.90;;
77322;SDS011;66384;51.052;9.850;2023-10-08T02:14:34;11.40;;;5.00;;
77322;SDS011;66384;51.052;9.850;2023-10-08T02:17:05;12.00;;;5.10;;
77322;SDS011;66384;51.052;9.850;2023-10-08T02:19:39;9.50;;;4.90;;
77322;SDS011;66384;51.052;9.850;2023-10-08T02:22:11;7.10;;;4.00;;
77322;SDS011;66384;51.052;9.850;2023-10-08T02:24:44;12.20;;;5.00;;
77322;SDS011;66384;51.052;9.850;2023-10-08T02:27:16;9.50;;;4.30;;
77322;SDS011;66384;51.052;9.850;2023-10-08T02:29:48;11.70;;;5.10;;
77322;SDS011;66384;51.052;9.850;2023-10-08T02:32:19;10.60;;;4.70;;
77322;SDS011;66384;51.052;9.850;2023-10-08T02:34:51;13.30;;;5.50;;
77322;SDS011;66384;51.052;9.850;2023-10-08T02:37:23;11.70;;;5.60;;
77322;SDS011;66384;51.052;9.850;2023-10-08T02:39:54;14.10;;;5.40;;
77322;SDS011;66384;51.052;9.850;2023-10-08T02:42:26;13.60;;;6.10;;
77322;SDS011;66384;51.052;9.850;2023-10-08T02:44:58;10.80;;;5.40;;
77322;SDS011;66384;51.052;9.850;2023-10-08T02:47:31;9.00;;;5.50;;
77322;SDS011;66384;51.052;9.850;2023-10-08T02:50:04;12.50;;;5.90;;
77322;SDS011;66384;51.052;9.850;2023-10-08T02:52:37;15.20;;;6.70;;
77322;SDS011;66384;51.052;9.850;2023-10-08T02:55:09;12.10;;;5.60;;
77322;SDS011;66384;51.052;9.850;2023-10-08T02:57:53;12.30;;;5.60;;
77322;SDS011;66384;51.052;9.850;2023-10-08T03:00:25;9.90;;;5.90;;
77322;SDS011;66384;51.052;9.850;2023-10-08T03:02:59;14.60;;;6.90;;
77322;SDS011;66384;51.052;9.850;2023-10-08T03:05:38;14.90;;;6.50;;
77322;SDS011;66384;51.052;9.850;2023-10-08T03:08:10;12.10;;;5.10;;
77322;SDS011;66384;51.052;9.850;2023-10-08T03:10:48;14.70;;;6.00;;
77322;SDS011;66384;51.052;9.850;2023-10-08T03:13:24;12.60;;;5.90;;
77322;SDS011;66384;51.052;9.850;2023-10-08T03:15:56;13.10;;;6.00;;
77322;SDS011;66384;51.052;9.850;2023-10-08T03:18:37;13.50;;;6.10;;
77322;SDS011;66384;51.052;9.850;2023-10-08T03:21:11;14.90;;;6.30;;
77322;SDS011;66384;51.052;9.850;2023-10-08T03:24:02;14.10;;;6.50;;
77322;SDS011;66384;51.052;9.850;2023-10-08T03:26:41;17.80;;;7.20;;
77322;SDS011;66384;51.052;9.850;2023-10-08T03:29:14;9.10;;;5.80;;
77322;SDS011;66384;51.052;9.850;2023-10-08T03:31:47;14.10;;;6.20;;
77322;SDS011;66384;51.052;9.850;2023-10-08T03:34:22;12.30;;;6.20;;
77322;SDS011;66384;51.052;9.850;2023-10-08T03:36:57;16.30;;;6.70;;
77322;SDS011;66384;51.052;9.850;2023-10-08T03:39:35;19.90;;;6.40;;
77322;SDS011;66384;51.052;9.850;2023-10-08T03:42:21;13.30;;;6.20;;
77322;SDS011;66384;51.052;9.850;2023-10-08T03:44:53;12.60;;;5.60;;
77322;SDS011;66384;51.052;9.850;2023-10-08T03:47:26;12.40;;;6.20;;
77322;SDS011;66384;51.052;9.850;2023-10-08T03:50:01;16.20;;;6.10;;
77322;SDS011;66384;51.052;9.850;2023-10-08T03:52:34;9.60;;;5.60;;
77322;SDS011;66384;51.052;9.850;2023-10-08T03:55:07;12.20;;;6.30;;
77322;SDS011;66384;51.052;9.850;2023-10-08T03:57:50;11.10;;;6.40;;
77322;SDS011;66384;51.052;9.850;2023-10-08T04:00:27;11.50;;;6.00;;
77322;SDS011;66384;51.052;9.850;2023-10-08T04:03:00;14.00;;;7.10;;
77322;SDS011;66384;51.052;9.850;2023-10-08T04:08:28;12.10;;;6.00;;
77322;SDS011;66384;51.052;9.850;2023-10-08T04:11:12;12.50;;;6.80;;
77322;SDS011;66384;51.052;9.850;2023-10-08T04:13:59;15.80;;;7.10;;
77322;SDS011;66384;51.052;9.850;2023-10-08T04:16:32;11.90;;;5.90;;
77322;SDS011;66384;51.052;9.850;2023-10-08T04:19:06;14.10;;;6.20;;
77322;SDS011;66384;51.052;9.850;2023-10-08T04:21:38;12.30;;;6.40;;
77322;SDS011;66384;51.052;9.850;2023-10-08T04:24:12;17.80;;;7.60;;
77322;SDS011;66384;51.052;9.850;2023-10-08T04:29:19;12.40;;;6.20;;
77322;SDS011;66384;51.052;9.850;2023-10-08T04:31:51;11.30;;;5.60;;
77322;SDS011;66384;51.052;9.850;2023-10-08T04:34:37;13.60;;;6.30;;
77322;SDS011;66384;51.052;9.850;2023-10-08T04:37:14;20.30;;;8.30;;
77322;SDS011;66384;51.052;9.850;2023-10-08T04:39:49;17.70;;;8.00;;
77322;SDS011;66384;51.052;9.850;2023-10-08T04:42:27;19.90;;;8.30;;
77322;SDS011;66384;51.052;9.850;2023-10-08T04:44:59;16.30;;;6.70;;
77322;SDS011;66384;51.052;9.850;2023-10-08T04:47:31;13.80;;;6.70;;
77322;SDS011;66384;51.052;9.850;2023-10-08T04:50:05;10.90;;;6.40;;
77322;SDS011;66384;51.052;9.850;2023-10-08T04:52:43;11.50;;;7.10;;
77322;SDS011;66384;51.052;9.850;2023-10-08T04:55:27;13.40;;;8.00;;
77322;SDS011;66384;51.052;9.850;2023-10-08T04:57:58;14.40;;;6.50;;
77322;SDS011;66384;51.052;9.850;2023-10-08T05:00:34;14.70;;;7.00;;
77322;SDS011;66384;51.052;9.850;2023-10-08T05:03:22;11.60;;;7.50;;
77322;SDS011;66384;51.052;9.850;2023-10-08T05:06:01;18.20;;;6.90;;
77322;SDS011;66384;51.052;9.850;2023-10-08T05:08:38;11.70;;;7.00;;
77322;SDS011;66384;51.052;9.850;2023-10-08T05:11:27;13.30;;;7.40;;
77322;SDS011;66384;51.052;9.850;2023-10-08T05:14:15;15.20;;;8.00;;
77322;SDS011;66384;51.052;9.850;2023-10-08T05:16:57;16.00;;;7.70;;
77322;SDS011;66384;51.052;9.850;2023-10-08T05:19:38;19.70;;;9.00;;
77322;SDS011;66384;51.052;9.850;2023-10-08T05:22:27;13.30;;;8.30;;
77322;SDS011;66384;51.052;9.850;2023-10-08T05:25:14;18.40;;;8.10;;
77322;SDS011;66384;51.052;9.850;2023-10-08T05:28:04;14.60;;;8.20;;
77322;SDS011;66384;51.052;9.850;2023-10-08T05:30:40;15.90;;;8.80;;
77322;SDS011;66384;51.052;9.850;2023-10-08T05:33:22;15.20;;;6.70;;
77322;SDS011;66384;51.052;9.850;2023-10-08T05:35:54;17.90;;;8.40;;
77322;SDS011;66384;51.052;9.850;2023-10-08T05:38:38;19.40;;;7.70;;
77322;SDS011;66384;51.052;9.850;2023-10-08T05:41:29;13.20;;;8.20;;
77322;SDS011;66384;51.052;9.850;2023-10-08T05:44:20;14.80;;;7.80;;
77322;SDS011;66384;51.052;9.850;2023-10-08T05:47:07;15.90;;;7.20;;
77322;SDS011;66384;51.052;9.850;2023-10-08T05:49:56;12.90;;;7.70;;
77322;SDS011;66384;51.052;9.850;2023-10-08T05:52:42;15.70;;;9.00;;
77322;SDS011;66384;51.052;9.850;2023-10-08T05:55:30;16.80;;;9.50;;
77322;SDS011;66384;51.052;9.850;2023-10-08T05:58:11;17.70;;;12.00;;
77322;SDS011;66384;51.052;9.850;2023-10-08T06:00:53;16.70;;;9.20;;
77322;SDS011;66384;51.052;9.850;2023-10-08T06:03:37;12.20;;;7.40;;
77322;SDS011;66384;51.052;9.850;2023-10-08T06:06:17;7.50;;;4.90;;
77322;SDS011;66384;51.052;9.850;2023-10-08T06:08:54;6.40;;;3.70;;
77322;SDS011;66384;51.052;9.850;2023-10-08T06:11:44;10.80;;;3.20;;
77322;SDS011;66384;51.052;9.850;2023-10-08T06:14:37;3.60;;;2.50;;
77322;SDS011;66384;51.052;9.850;2023-10-08T06:17:37;4.80;;;2.30;;
77322;SDS011;66384;51.052;9.850;2023-10-08T06:20:35;3.00;;;2.00;;
77322;SDS011;66384;51.052;9.850;2023-10-08T06:23:09;4.30;;;2.60;;
77322;SDS011;66384;51.052;9.850;2023-10-08T06:25:44;4.30;;;2.40;;
77322;SDS011;66384;51.052;9.850;2023-10-08T06:28:23;3.70;;;1.80;;
77322;SDS011;66384;51.052;9.850;2023-10-08T06:30:55;3.70;;;1.70;;
77322;SDS011;66384;51.052;9.850;2023-10-08T06:33:27;2.00;;;1.50;;
77322;SDS011;66384;51.052;9.850;2023-10-08T06:36:03;3.10;;;1.70;;
77322;SDS011;66384;51.052;9.850;2023-10-08T06:38:43;5.60;;;1.50;;
77322;SDS011;66384;51.052;9.850;2023-10-08T06:41:18;5.10;;;1.30;;
77322;SDS011;66384;51.052;9.850;2023-10-08T06:44:16;1.40;;;0.90;;
77322;SDS011;66384;51.052;9.850;2023-10-08T06:46:47;2.00;;;0.90;;
77322;SDS011;66384;51.052;9.850;2023-10-08T06:49:21;1.10;;;0.80;;
77322;SDS011;66384;51.052;9.850;2023-10-08T06:51:53;1.20;;;1.00;;
77322;SDS011;66384;51.052;9.850;2023-10-08T06:54:25;2.00;;;1.30;;
77322;SDS011;66384;51.052;9.850;2023-10-08T06:57:02;1.40;;;0.90;;
77322;SDS011;66384;51.052;9.850;2023-10-08T06:59:43;0.80;;;0.70;;
77322;SDS011;66384;51.052;9.850;2023-10-08T07:02:15;1.20;;;0.80;;
77322;SDS011;66384;51.052;9.850;2023-10-08T07:04:47;3.20;;;0.60;;
77322;SDS011;66384;51.052;9.850;2023-10-08T07:07:20;1.60;;;1.10;;
77322;SDS011;66384;51.052;9.850;2023-10-08T07:09:51;1.30;;;0.90;;
77322;SDS011;66384;51.052;9.850;2023-10-08T07:12:25;2.20;;;0.60;;
77322;SDS011;66384;51.052;9.850;2023-10-08T07:14:58;1.20;;;0.60;;
77322;SDS011;66384;51.052;9.850;2023-10-08T07:17:32;0.90;;;0.60;;
77322;SDS011;66384;51.052;9.850;2023-10-08T07:20:10;0.60;;;0.40;;
77322;SDS011;66384;51.052;9.850;2023-10-08T07:22:51;0.60;;;0.60;;
77322;SDS011;66384;51.052;9.850;2023-10-08T07:25:23;0.70;;;0.60;;
77322;SDS011;66384;51.052;9.850;2023-10-08T07:28:05;1.20;;;1.00;;
77322;SDS011;66384;51.052;9.850;2023-10-08T07:30:40;1.10;;;1.00;;
77322;SDS011;66384;51.052;9.850;2023-10-08T07:33:13;1.40;;;1.10;;
77322;SDS011;66384;51.052;9.850;2023-10-08T07:35:47;2.10;;;1.20;;
77322;SDS011;66384;51.052;9.850;2023-10-08T07:38:26;2.80;;;1.30;;
77322;SDS011;66384;51.052;9.850;2023-10-08T07:40:59;1.00;;;0.90;;
77322;SDS011;66384;51.052;9.850;2023-10-08T07:43:30;2.70;;;1.20;;
77322;SDS011;66384;51.052;9.850;2023-10-08T07:46:02;0.50;;;0.50;;
77322;SDS011;66384;51.052;9.850;2023-10-08T07:48:34;0.60;;;0.60;;
77322;SDS011;66384;51.052;9.850;2023-10-08T07:51:12;1.40;;;1.00;;
77322;SDS011;66384;51.052;9.850;2023-10-08T07:53:46;0.70;;;0.70;;
77322;SDS011;66384;51.052;9.850;2023-10-08T07:56:18;1.40;;;0.90;;
77322;SDS011;66384;51.052;9.850;2023-10-08T07:58:49;1.70;;;1.00;;
77322;SDS011;66384;51.052;9.850;2023-10-08T08:01:22;1.20;;;0.80;;
77322;SDS011;66384;51.052;9.850;2023-10-08T08:03:55;0.70;;;0.70;;
77322;SDS011;66384;51.052;9.850;2023-10-08T08:06:27;2.70;;;1.00;;
77322;SDS011;66384;51.052;9.850;2023-10-08T08:08:59;1.90;;;0.70;;
77322;SDS011;66384;51.052;9.850;2023-10-08T08:11:33;1.90;;;0.80;;
77322;SDS011;66384;51.052;9.850;2023-10-08T08:14:06;2.70;;;1.00;;
77322;SDS011;66384;51.052;9.850;2023-10-08T08:16:39;1.10;;;0.80;;
77322;SDS011;66384;51.052;9.850;2023-10-08T08:19:11;1.90;;;0.80;;
77322;SDS011;66384;51.052;9.850;2023-10-08T08:21:44;2.00;;;0.70;;
77322;SDS011;66384;51.052;9.850;2023-10-08T08:24:16;1.70;;;0.90;;
77322;SDS011;66384;51.052;9.850;2023-10-08T08:26:57;1.50;;;1.10;;
77322;SDS011;66384;51.052;9.850;2023-10-08T08:29:37;1.20;;;0.90;;
77322;SDS011;66384;51.052;9.850;2023-10-08T08:32:14;4.20;;;1.10;;
77322;SDS011;66384;51.052;9.850;2023-10-08T08:34:50;2.90;;;0.80;;
77322;SDS011;66384;51.052;9.850;2023-10-08T08:37:22;1.70;;;1.20;;
77322;SDS011;66384;51.052;9.850;2023-10-08T08:39:58;3.40;;;1.60;;
77322;SDS011;66384;51.052;9.850;2023-10-08T08:42:31;2.70;;;1.10;;
77322;SDS011;66384;51.052;9.850;2023-10-08T08:45:06;2.10;;;1.20;;
77322;SDS011;66384;51.052;9.850;2023-10-08T08:47:41;3.20;;;1.50;;
77322;SDS011;66384;51.052;9.850;2023-10-08T08:50:13;9.90;;;4.10;;
77322;SDS011;66384;51.052;9.850;2023-10-08T08:52:46;23.10;;;7.60;;
77322;SDS011;66384;51.052;9.850;2023-10-08T08:55:21;9.20;;;4.40;;
77322;SDS011;66384;51.052;9.850;2023-10-08T08:57:54;5.00;;;2.80;;
77322;SDS011;66384;51.052;9.850;2023-10-08T09:00:26;5.30;;;2.60;;
77322;SDS011;66384;51.052;9.850;2023-10-08T09:02:59;4.50;;;2.10;;
77322;SDS011;66384;51.052;9.850;2023-10-08T09:05:34;5.50;;;2.00;;
77322;SDS011;66384;51.052;9.850;2023-10-08T09:08:09;3.10;;;1.90;;
77322;SDS011;66384;51.052;9.850;2023-10-08T09:10:45;4.10;;;1.90;;
77322;SDS011;66384;51.052;9.850;2023-10-08T09:13:21;5.20;;;2.10;;
77322;SDS011;66384;51.052;9.850;2023-10-08T09:15:55;5.00;;;2.20;;
77322;SDS011;66384;51.052;9.850;2023-10-08T09:18:32;4.40;;;1.90;;
77322;SDS011;66384;51.052;9.850;2023-10-08T09:21:13;3.30;;;2.10;;
77322;SDS011;66384;51.052;9.850;2023-10-08T09:23:51;4.10;;;1.60;;
77322;SDS011;66384;51.052;9.850;2023-10-08T09:26:24;2.00;;;1.30;;
77322;SDS011;66384;51.052;9.850;2023-10-08T09:28:58;3.10;;;1.40;;
77322;SDS011;66384;51.052;9.850;2023-10-08T09:31:30;3.10;;;1.40;;
77322;SDS011;66384;51.052;9.850;2023-10-08T09:34:04;2.50;;;1.50;;
77322;SDS011;66384;51.052;9.850;2023-10-08T09:36:36;5.30;;;2.30;;
77322;SDS011;66384;51.052;9.850;2023-10-08T09:39:11;4.40;;;2.20;;
77322;SDS011;66384;51.052;9.850;2023-10-08T09:41:52;4.20;;;1.90;;
77322;SDS011;66384;51.052;9.850;2023-10-08T09:44:26;3.10;;;1.80;;
77322;SDS011;66384;51.052;9.850;2023-10-08T09:46:59;5.10;;;3.30;;
77322;SDS011;66384;51.052;9.850;2023-10-08T09:49:38;4.90;;;2.00;;
77322;SDS011;66384;51.052;9.850;2023-10-08T09:52:13;4.60;;;2.00;;
77322;SDS011;66384;51.052;9.850;2023-10-08T09:54:51;3.20;;;1.50;;
77322;SDS011;66384;51.052;9.850;2023-10-08T09:57:29;4.00;;;2.30;;
77322;SDS011;66384;51.052;9.850;2023-10-08T10:00:03;1.60;;;1.00;;
77322;SDS011;66384;51.052;9.850;2023-10-08T10:02:39;2.70;;;1.30;;
77322;SDS011;66384;51.052;9.850;2023-10-08T10:05:13;5.50;;;1.60;;
77322;SDS011;66384;51.052;9.850;2023-10-08T10:07:50;4.20;;;1.20;;
77322;SDS011;66384;51.052;9.850;2023-10-08T10:10:29;1.90;;;1.50;;
77322;SDS011;66384;51.052;9.850;2023-10-08T10:13:04;2.90;;;1.30;;
77322;SDS011;66384;51.052;9.850;2023-10-08T10:15:37;2.70;;;1.30;;
77322;SDS011;66384;51.052;9.850;2023-10-08T10:18:13;4.40;;;1.40;;
77322;SDS011;66384;51.052;9.850;2023-10-08T10:20:51;4.60;;;1.40;;
77322;SDS011;66384;51.052;9.850;2023-10-08T10:23:36;2.10;;;1.20;;
77322;SDS011;66384;51.052;9.850;2023-10-08T10:26:22;2.10;;;1.30;;
77322;SDS011;66384;51.052;9.850;2023-10-08T10:31:55;3.50;;;1.80;;
77322;SDS011;66384;51.052;9.850;2023-10-08T10:34:27;11.80;;;5.60;;
77322;SDS011;66384;51.052;9.850;2023-10-08T10:37:03;10.20;;;5.10;;
77322;SDS011;66384;51.052;9.850;2023-10-08T10:39:38;4.40;;;2.90;;
77322;SDS011;66384;51.052;9.850;2023-10-08T10:42:11;9.10;;;3.20;;
77322;SDS011;66384;51.052;9.850;2023-10-08T10:44:50;3.30;;;1.70;;
77322;SDS011;66384;51.052;9.850;2023-10-08T10:47:22;4.60;;;1.90;;
77322;SDS011;66384;51.052;9.850;2023-10-08T10:50:11;7.10;;;2.90;;
77322;SDS011;66384;51.052;9.850;2023-10-08T10:52:55;3.80;;;2.40;;
77322;SDS011;66384;51.052;9.850;2023-10-08T10:55:38;6.50;;;2.50;;
77322;SDS011;66384;51.052;9.850;2023-10-08T10:58:17;3.20;;;1.90;;
77322;SDS011;66384;51.052;9.850;2023-10-08T11:00:53;5.00;;;1.50;;
77322;SDS011;66384;51.052;9.850;2023-10-08T11:03:28;3.00;;;1.70;;
77322;SDS011;66384;51.052;9.850;2023-10-08T11:06:04;4.80;;;1.40;;
77322;SDS011;66384;51.052;9.850;2023-10-08T11:08:44;3.10;;;1.60;;
77322;SDS011;66384;51.052;9.850;2023-10-08T11:11:17;3.70;;;1.30;;
77322;SDS011;66384;51.052;9.850;2023-10-08T11:13:57;2.50;;;1.90;;
77322;SDS011;66384;51.052;9.850;2023-10-08T11:16:31;3.30;;;2.30;;
77322;SDS011;66384;51.052;9.850;2023-10-08T11:19:07;3.40;;;2.60;;
77322;SDS011;66384;51.052;9.850;2023-10-08T11:21:51;3.20;;;1.70;;
77322;SDS011;66384;51.052;9.850;2023-10-08T11:24:30;3.00;;;1.50;;
77322;SDS011;66384;51.052;9.850;2023-10-08T11:27:04;5.50;;;2.20;;
77322;SDS011;66384;51.052;9.850;2023-10-08T11:29:46;4.40;;;2.30;;
77322;SDS011;66384;51.052;9.850;2023-10-08T11:32:26;3.20;;;1.40;;
77322;SDS011;66384;51.052;9.850;2023-10-08T11:35:01;7.70;;;1.70;;
77322;SDS011;66384;51.052;9.850;2023-10-08T11:37:46;3.50;;;1.50;;
77322;SDS011;66384;51.052;9.850;2023-10-08T11:40:23;1.70;;;1.10;;
77322;SDS011;66384;51.052;9.850;2023-10-08T11:42:58;3.80;;;1.50;;
77322;SDS011;66384;51.052;9.850;2023-10-08T11:45:32;3.00;;;1.70;;
77322;SDS011;66384;51.052;9.850;2023-10-08T11:48:07;2.90;;;1.30;;
77322;SDS011;66384;51.052;9.850;2023-10-08T11:50:42;3.30;;;1.40;;
77322;SDS011;66384;51.052;9.850;2023-10-08T11:53:13;3.40;;;1.70;;
77322;SDS011;66384;51.052;9.850;2023-10-08T11:55:48;4.40;;;1.70;;
77322;SDS011;66384;51.052;9.850;2023-10-08T11:58:25;3.20;;;1.40;;
77322;SDS011;66384;51.052;9.850;2023-10-08T12:01:06;2.40;;;1.70;;
77322;SDS011;66384;51.052;9.850;2023-10-08T12:03:40;4.30;;;1.70;;
77322;SDS011;66384;51.052;9.850;2023-10-08T12:06:12;2.80;;;1.30;;
77322;SDS011;66384;51.052;9.850;2023-10-08T12:08:48;8.90;;;4.20;;
77322;SDS011;66384;51.052;9.850;2023-10-08T12:11:22;2.60;;;1.30;;
77322;SDS011;66384;51.052;9.850;2023-10-08T12:14:00;2.40;;;1.40;;
77322;SDS011;66384;51.052;9.850;2023-10-08T12:16:32;2.20;;;1.40;;
77322;SDS011;66384;51.052;9.850;2023-10-08T12:19:05;3.80;;;1.30;;
77322;SDS011;66384;51.052;9.850;2023-10-08T12:21:45;3.70;;;1.80;;
77322;SDS011;66384;51.052;9.850;2023-10-08T12:24:16;2.40;;;1.40;;
77322;SDS011;66384;51.052;9.850;2023-10-08T12:26:48;2.20;;;1.30;;
77322;SDS011;66384;51.052;9.850;2023-10-08T12:29:20;3.30;;;1.60;;
77322;SDS011;66384;51.052;9.850;2023-10-08T12:31:54;5.40;;;1.50;;
77322;SDS011;66384;51.052;9.850;2023-10-08T12:34:28;3.30;;;1.90;;
77322;SDS011;66384;51.052;9.850;2023-10-08T12:37:04;4.70;;;1.20;;
77322;SDS011;66384;51.052;9.850;2023-10-08T12:39:36;2.40;;;1.30;;
77322;SDS011;66384;51.052;9.850;2023-10-08T12:42:25;2.20;;;1.10;;
77322;SDS011;66384;51.052;9.850;2023-10-08T12:44:59;3.20;;;1.30;;
77322;SDS011;66384;51.052;9.850;2023-10-08T12:47:31;2.70;;;1.30;;
77322;SDS011;66384;51.052;9.850;2023-10-08T12:50:06;3.70;;;1.60;;
77322;SDS011;66384;51.052;9.850;2023-10-08T12:52:44;2.80;;;1.30;;
77322;SDS011;66384;51.052;9.850;2023-10-08T12:55:22;2.40;;;1.50;;
77322;SDS011;66384;51.052;9.850;2023-10-08T12:57:53;4.80;;;2.10;;
77322;SDS011;66384;51.052;9.850;2023-10-08T13:00:35;3.00;;;1.70;;
77322;SDS011;66384;51.052;9.850;2023-10-08T13:03:10;4.10;;;1.60;;
77322;SDS011;66384;51.052;9.850;2023-10-08T13:05:44;5.70;;;2.90;;
77322;SDS011;66384;51.052;9.850;2023-10-08T13:08:16;9.50;;;3.60;;
77322;SDS011;66384;51.052;9.850;2023-10-08T13:10:49;5.20;;;2.60;;
77322;SDS011;66384;51.052;9.850;2023-10-08T13:13:20;4.80;;;2.40;;
77322;SDS011;66384;51.052;9.850;2023-10-08T13:15:55;3.80;;;1.80;;
77322;SDS011;66384;51.052;9.850;2023-10-08T13:18:29;2.90;;;1.70;;
77322;SDS011;66384;51.052;9.850;2023-10-08T13:21:02;3.00;;;1.30;;
77322;SDS011;66384;51.052;9.850;2023-10-08T13:23:35;5.60;;;1.50;;
77322;SDS011;66384;51.052;9.850;2023-10-08T13:26:08;4.60;;;2.20;;
77322;SDS011;66384;51.052;9.850;2023-10-08T13:28:46;3.30;;;1.80;;
77322;SDS011;66384;51.052;9.850;2023-10-08T13:31:17;3.50;;;1.90;;
77322;SDS011;66384;51.052;9.850;2023-10-08T13:33:51;4.20;;;2.30;;
77322;SDS011;66384;51.052;9.850;2023-10-08T13:36:26;7.30;;;2.80;;
77322;SDS011;66384;51.052;9.850;2023-10-08T13:38:58;3.30;;;1.90;;
77322;SDS011;66384;51.052;9.850;2023-10-08T13:41:30;3.20;;;1.40;;
77322;SDS011;66384;51.052;9.850;2023-10-08T13:44:04;2.00;;;1.00;;
77322;SDS011;66384;51.052;9.850;2023-10-08T13:46:36;3.70;;;1.30;;
77322;SDS011;66384;51.052;9.850;2023-10-08T13:49:12;4.00;;;1.70;;
77322;SDS011;66384;51.052;9.850;2023-10-08T13:51:45;4.60;;;1.70;;
77322;SDS011;66384;51.052;9.850;2023-10-08T13:54:25;3.10;;;1.80;;
77322;SDS011;66384;51.052;9.850;2023-10-08T13:56:59;3.30;;;1.50;;
77322;SDS011;66384;51.052;9.850;2023-10-08T13:59:31;2.10;;;1.40;;
77322;SDS011;66384;51.052;9.850;2023-10-08T14:02:03;2.50;;;1.70;;
77322;SDS011;66384;51.052;9.850;2023-10-08T14:04:43;1.80;;;1.30;;
77322;SDS011;66384;51.052;9.850;2023-10-08T14:07:19;4.60;;;1.50;;
77322;SDS011;66384;51.052;9.850;2023-10-08T14:09:52;1.70;;;1.10;;
77322;SDS011;66384;51.052;9.850;2023-10-08T14:12:23;1.90;;;1.30;;
77322;SDS011;66384;51.052;9.850;2023-10-08T14:14:56;2.20;;;1.40;;
77322;SDS011;66384;51.052;9.850;2023-10-08T14:17:28;3.60;;;1.50;;
77322;SDS011;66384;51.052;9.850;2023-10-08T14:20:12;4.30;;;2.00;;
77322;SDS011;66384;51.052;9.850;2023-10-08T14:22:50;3.70;;;2.50;;
77322;SDS011;66384;51.052;9.850;2023-10-08T14:25:27;3.20;;;1.60;;
77322;SDS011;66384;51.052;9.850;2023-10-08T14:28:02;2.60;;;1.50;;
77322;SDS011;66384;51.052;9.850;2023-10-08T14:30:35;4.10;;;1.60;;
77322;SDS011;66384;51.052;9.850;2023-10-08T14:33:10;1.60;;;1.20;;
77322;SDS011;66384;51.052;9.850;2023-10-08T14:35:53;2.30;;;1.30;;
77322;SDS011;66384;51.052;9.850;2023-10-08T14:38:42;3.10;;;1.40;;
77322;SDS011;66384;51.052;9.850;2023-10-08T14:41:31;3.70;;;1.50;;
77322;SDS011;66384;51.052;9.850;2023-10-08T14:44:20;4.40;;;1.60;;
77322;SDS011;66384;51.052;9.850;2023-10-08T14:46:52;2.00;;;1.30;;
77322;SDS011;66384;51.052;9.850;2023-10-08T14:49:24;2.40;;;1.40;;
77322;SDS011;66384;51.052;9.850;2023-10-08T14:51:56;2.70;;;1.50;;
77322;SDS011;66384;51.052;9.850;2023-10-08T14:54:27;3.10;;;1.50;;
77322;SDS011;66384;51.052;9.850;2023-10-08T14:56:59;3.30;;;1.60;;
77322;SDS011;66384;51.052;9.850;2023-10-08T14:59:31;3.00;;;1.60;;
77322;SDS011;66384;51.052;9.850;2023-10-08T15:02:04;4.60;;;1.90;;
77322;SDS011;66384;51.052;9.850;2023-10-08T15:04:36;2.40;;;1.30;;
77322;SDS011;66384;51.052;9.850;2023-10-08T15:07:08;2.70;;;1.40;;
77322;SDS011;66384;51.052;9.850;2023-10-08T15:09:40;2.10;;;1.50;;
77322;SDS011;66384;51.052;9.850;2023-10-08T15:12:13;2.40;;;1.20;;
77322;SDS011;66384;51.052;9.850;2023-10-08T15:14:46;3.50;;;1.50;;
77322;SDS011;66384;51.052;9.850;2023-10-08T15:17:19;4.00;;;2.00;;
77322;SDS011;66384;51.052;9.850;2023-10-08T15:19:51;4.00;;;2.10;;
77322;SDS011;66384;51.052;9.850;2023-10-08T15:22:25;3.10;;;1.70;;
77322;SDS011;66384;51.052;9.850;2023-10-08T15:24:57;3.10;;;1.90;;
77322;SDS011;66384;51.052;9.850;2023-10-08T15:27:28;5.00;;;2.00;;
77322;SDS011;66384;51.052;9.850;2023-10-08T15:30:02;3.60;;;1.70;;
77322;SDS011;66384;51.052;9.850;2023-10-08T15:32:35;3.80;;;1.20;;
77322;SDS011;66384;51.052;9.850;2023-10-08T15:35:09;3.70;;;2.10;;
77322;SDS011;66384;51.052;9.850;2023-10-08T15:37:43;3.00;;;1.50;;
77322;SDS011;66384;51.052;9.850;2023-10-08T15:40:15;2.90;;;1.80;;
77322;SDS011;66384;51.052;9.850;2023-10-08T15:42:48;2.70;;;1.70;;
77322;SDS011;66384;51.052;9.850;2023-10-08T15:45:22;3.40;;;1.80;;
77322;SDS011;66384;51.052;9.850;2023-10-08T15:47:54;2.80;;;1.60;;